createdAt,value
2017-02-06T00:00:05.084Z,0
2017-02-06T00:01:05.064Z,0
2017-02-06T00:02:05.044Z,0
2017-02-06T00:03:05.025Z,0
2017-02-06T00:04:05.005Z,0
2017-02-06T00:05:04.984Z,0
2017-02-06T00:06:04.972Z,0
2017-02-06T00:07:04.951Z,0
2017-02-06T00:08:04.949Z,0
2017-02-06T00:09:04.906Z,0
2017-02-06T00:10:04.879Z,0
2017-02-06T00:11:04.855Z,0
2017-02-06T00:12:04.836Z,0
2017-02-06T00:13:04.822Z,0
2017-02-06T00:14:05.219Z,0
2017-02-06T00:15:03.983Z,0
2017-02-06T00:16:04.761Z,0
2017-02-06T00:17:04.770Z,0
2017-02-06T00:18:04.742Z,0
2017-02-06T00:19:04.711Z,0
2017-02-06T00:20:04.665Z,0
2017-02-06T00:21:04.646Z,0
2017-02-06T00:22:04.628Z,0
2017-02-06T00:23:04.612Z,0
2017-02-06T00:24:04.584Z,0
2017-02-06T00:25:04.587Z,0
2017-02-06T00:26:04.571Z,0
2017-02-06T00:27:04.525Z,0
2017-02-06T00:28:04.508Z,0
2017-02-06T00:29:04.085Z,0
2017-02-06T00:30:04.463Z,0
2017-02-06T00:31:04.441Z,0
2017-02-06T00:32:04.426Z,0
2017-02-06T00:33:04.400Z,0
2017-02-06T00:34:04.379Z,0
2017-02-06T00:35:04.353Z,0
2017-02-06T00:36:04.332Z,0
2017-02-06T00:37:04.310Z,0
2017-02-06T00:38:03.497Z,0
2017-02-06T00:39:04.272Z,0
2017-02-06T00:40:03.859Z,0
2017-02-06T00:41:04.222Z,0
2017-02-06T00:42:04.206Z,0
2017-02-06T00:43:04.185Z,0
2017-02-06T00:44:04.166Z,0
2017-02-06T00:45:04.143Z,0
2017-02-06T00:46:04.113Z,0
2017-02-06T00:47:04.094Z,0
2017-02-06T00:48:04.074Z,0
2017-02-06T00:49:04.058Z,0
2017-02-06T00:50:04.029Z,0
2017-02-06T00:51:04.020Z,0
2017-02-06T00:52:04.029Z,0
2017-02-06T00:53:03.581Z,0
2017-02-06T00:54:03.948Z,0
2017-02-06T00:55:03.943Z,0
2017-02-06T00:56:03.900Z,0
2017-02-06T00:57:03.886Z,0
2017-02-06T00:58:03.860Z,0
2017-02-06T00:59:03.846Z,0
2017-02-06T01:00:03.421Z,0
2017-02-06T01:01:03.416Z,0
2017-02-06T01:02:02.190Z,0
2017-02-06T01:03:02.958Z,0
2017-02-06T01:04:02.942Z,0
2017-02-06T01:05:03.319Z,0
2017-02-06T01:06:03.291Z,0
2017-02-06T01:07:03.664Z,0
2017-02-06T01:08:03.651Z,0
2017-02-06T01:09:03.622Z,0
2017-02-06T01:10:03.600Z,0
2017-02-06T01:11:03.630Z,0
2017-02-06T01:12:03.559Z,0
2017-02-06T01:13:03.540Z,0
2017-02-06T01:14:03.514Z,0
2017-02-06T01:15:03.493Z,0
2017-02-06T01:16:03.479Z,0
2017-02-06T01:17:03.454Z,0
2017-02-06T01:18:03.471Z,0
2017-02-06T01:19:03.460Z,0
2017-02-06T01:20:03.392Z,0
2017-02-06T01:21:03.404Z,0
2017-02-06T01:22:03.344Z,0
2017-02-06T01:23:03.318Z,0
2017-02-06T01:24:03.295Z,0
2017-02-06T01:25:03.280Z,0
2017-02-06T01:26:03.255Z,0
2017-02-06T01:27:02.836Z,0
2017-02-06T01:28:02.818Z,0
2017-02-06T01:29:03.205Z,0
2017-02-06T01:30:03.167Z,0
2017-02-06T01:31:03.144Z,0
2017-02-06T01:32:03.123Z,0
2017-02-06T01:33:03.144Z,0
2017-02-06T01:34:03.083Z,0
2017-02-06T01:35:03.078Z,0
2017-02-06T01:36:03.032Z,0
2017-02-06T01:37:03.012Z,0
2017-02-06T01:38:02.992Z,0
2017-02-06T01:39:02.967Z,0
2017-02-06T01:40:02.545Z,0
2017-02-06T01:41:02.920Z,0
2017-02-06T01:42:02.924Z,0
2017-02-06T01:43:02.912Z,0
2017-02-06T01:44:02.887Z,0
2017-02-06T01:45:02.838Z,0
2017-02-06T01:46:02.819Z,0
2017-02-06T01:47:02.802Z,0
2017-02-06T01:48:02.770Z,0
2017-02-06T01:49:02.748Z,0
2017-02-06T01:50:02.723Z,0
2017-02-06T01:51:02.313Z,0
2017-02-06T01:52:02.683Z,0
2017-02-06T01:53:02.668Z,0
2017-02-06T01:54:02.638Z,0
2017-02-06T01:55:02.615Z,0
2017-02-06T01:56:02.599Z,0
2017-02-06T01:57:02.571Z,0
2017-02-06T01:58:02.557Z,0
2017-02-06T01:59:02.533Z,0
2017-02-06T02:00:02.511Z,0
2017-02-06T02:01:02.490Z,0
2017-02-06T02:02:02.461Z,0
2017-02-06T02:03:02.440Z,0
2017-02-06T02:04:02.416Z,0
2017-02-06T02:05:02.406Z,0
2017-02-06T02:06:02.016Z,0
2017-02-06T02:07:02.357Z,0
2017-02-06T02:08:01.975Z,0
2017-02-06T02:09:02.306Z,0
2017-02-06T02:10:02.286Z,0
2017-02-06T02:11:02.259Z,0
2017-02-06T02:12:02.239Z,0
2017-02-06T02:13:02.220Z,0
2017-02-06T02:14:02.407Z,0
2017-02-06T02:15:02.174Z,0
2017-02-06T02:16:02.166Z,0
2017-02-06T02:17:02.128Z,0
2017-02-06T02:18:02.106Z,0
2017-02-06T02:19:02.080Z,0
2017-02-06T02:20:02.072Z,0
2017-02-06T02:21:02.041Z,0
2017-02-06T02:22:02.019Z,0
2017-02-06T02:23:01.993Z,0
2017-02-06T02:24:01.971Z,0
2017-02-06T02:25:01.950Z,0
2017-02-06T02:26:01.937Z,0
2017-02-06T02:27:01.904Z,0
2017-02-06T02:28:01.887Z,0
2017-02-06T02:29:01.860Z,0
2017-02-06T02:30:01.833Z,0
2017-02-06T02:31:01.852Z,0
2017-02-06T02:32:01.795Z,0
2017-02-06T02:33:01.773Z,0
2017-02-06T02:34:01.747Z,0
2017-02-06T02:35:01.737Z,0
2017-02-06T02:36:01.705Z,0
2017-02-06T02:37:01.682Z,0
2017-02-06T02:38:01.665Z,0
2017-02-06T02:39:01.641Z,0
2017-02-06T02:40:01.620Z,0
2017-02-06T02:41:01.593Z,0
2017-02-06T02:42:01.568Z,0
2017-02-06T02:43:00.758Z,0
2017-02-06T02:44:01.527Z,0
2017-02-06T02:45:01.505Z,0
2017-02-06T02:46:01.485Z,0
2017-02-06T02:47:01.066Z,0
2017-02-06T02:48:01.041Z,0
2017-02-06T02:49:01.408Z,0
2017-02-06T02:50:01.394Z,0
2017-02-06T02:51:01.371Z,0
2017-02-06T02:52:01.345Z,0
2017-02-06T02:53:01.326Z,0
2017-02-06T02:54:01.303Z,0
2017-02-06T02:55:01.276Z,0
2017-02-06T02:56:01.254Z,0
2017-02-06T02:57:01.236Z,0
2017-02-06T02:58:00.823Z,0
2017-02-06T02:59:01.197Z,0
2017-02-06T03:00:01.174Z,0
2017-02-06T03:01:01.151Z,0
2017-02-06T03:02:01.129Z,0
2017-02-06T03:03:01.107Z,0
2017-02-06T03:04:01.080Z,0
2017-02-06T03:05:01.064Z,0
2017-02-06T03:06:01.036Z,0
2017-02-06T03:07:01.020Z,0
2017-02-06T03:08:01.034Z,0
2017-02-06T03:09:00.996Z,0
2017-02-06T03:10:00.951Z,0
2017-02-06T03:11:00.939Z,0
2017-02-06T03:12:00.507Z,0
2017-02-06T03:13:00.488Z,0
2017-02-06T03:14:00.864Z,0
2017-02-06T03:15:00.839Z,0
2017-02-06T03:16:00.424Z,0
2017-02-06T03:17:00.403Z,0
2017-02-06T03:18:00.770Z,0
2017-02-06T03:19:00.744Z,0
2017-02-06T03:20:00.728Z,0
2017-02-06T03:21:00.712Z,0
2017-02-06T03:22:00.673Z,0
2017-02-06T03:23:00.658Z,0
2017-02-06T03:24:00.639Z,0
2017-02-06T03:25:00.611Z,0
2017-02-06T03:26:00.589Z,0
2017-02-06T03:27:00.569Z,0
2017-02-06T03:28:00.149Z,0
2017-02-06T03:29:00.522Z,0
2017-02-06T03:30:00.532Z,0
2017-02-06T03:31:00.479Z,0
2017-02-06T03:32:00.464Z,0
2017-02-06T03:33:00.440Z,0
2017-02-06T03:34:00.418Z,0
2017-02-06T03:35:00.392Z,0
2017-02-06T03:36:00.371Z,0
2017-02-06T03:37:00.346Z,0
2017-02-06T03:38:00.328Z,0
2017-02-06T03:39:00.297Z,0
2017-02-06T03:40:00.281Z,0
2017-02-06T03:41:00.270Z,0
2017-02-06T03:42:00.238Z,0
2017-02-06T03:43:00.213Z,0
2017-02-06T03:44:00.189Z,0
2017-02-06T03:45:00.173Z,0
2017-02-06T03:46:00.153Z,0
2017-02-06T03:47:00.128Z,0
2017-02-06T03:48:00.104Z,0
2017-02-06T03:49:00.086Z,0
2017-02-06T03:49:59.665Z,0
2017-02-06T03:51:00.040Z,0
2017-02-06T03:52:00.017Z,0
2017-02-06T03:52:59.991Z,0
2017-02-06T03:53:59.981Z,0
2017-02-06T03:54:59.954Z,0
2017-02-06T03:55:59.966Z,0
2017-02-06T03:56:59.914Z,0
2017-02-06T03:57:59.891Z,0
2017-02-06T03:58:59.864Z,0
2017-02-06T03:59:59.855Z,0
2017-02-06T04:00:59.822Z,0
2017-02-06T04:01:59.410Z,0
2017-02-06T04:02:59.780Z,0
2017-02-06T04:03:59.772Z,0
2017-02-06T04:04:59.737Z,0
2017-02-06T04:05:59.715Z,0
2017-02-06T04:06:59.698Z,0
2017-02-06T04:07:59.683Z,0
2017-02-06T04:08:59.653Z,0
2017-02-06T04:09:59.629Z,0
2017-02-06T04:10:59.605Z,0
2017-02-06T04:11:59.592Z,0
2017-02-06T04:12:59.567Z,0
2017-02-06T04:13:59.546Z,0
2017-02-06T04:14:59.341Z,0
2017-02-06T04:15:59.105Z,0
2017-02-06T04:16:59.481Z,0
2017-02-06T04:17:59.464Z,0
2017-02-06T04:18:59.443Z,0
2017-02-06T04:19:59.421Z,0
2017-02-06T04:20:59.399Z,0
2017-02-06T04:21:59.380Z,0
2017-02-06T04:22:59.350Z,0
2017-02-06T04:23:59.335Z,0
2017-02-06T04:24:59.315Z,0
2017-02-06T04:25:59.295Z,0
2017-02-06T04:26:59.274Z,0
2017-02-06T04:27:59.253Z,0
2017-02-06T04:28:59.229Z,0
2017-02-06T04:29:59.210Z,0
2017-02-06T04:30:59.223Z,0
2017-02-06T04:31:58.772Z,0
2017-02-06T04:32:58.756Z,0
2017-02-06T04:33:59.152Z,0
2017-02-06T04:34:59.113Z,0
2017-02-06T04:35:58.690Z,0
2017-02-06T04:36:58.667Z,0
2017-02-06T04:37:59.041Z,0
2017-02-06T04:38:59.021Z,0
2017-02-06T04:39:58.998Z,0
2017-02-06T04:40:58.981Z,0
2017-02-06T04:41:58.563Z,0
2017-02-06T04:42:58.938Z,0
2017-02-06T04:43:58.517Z,0
2017-02-06T04:44:58.894Z,0
2017-02-06T04:45:58.873Z,0
2017-02-06T04:46:58.856Z,0
2017-02-06T04:47:58.836Z,0
2017-02-06T04:48:58.808Z,0
2017-02-06T04:49:58.790Z,0
2017-02-06T04:50:58.769Z,0
2017-02-06T04:51:58.750Z,0
2017-02-06T04:52:58.723Z,0
2017-02-06T04:53:58.308Z,0
2017-02-06T04:54:58.297Z,0
2017-02-06T04:55:58.657Z,0
2017-02-06T04:56:58.639Z,0
2017-02-06T04:57:58.618Z,0
2017-02-06T04:58:58.207Z,0
2017-02-06T04:59:58.583Z,0
2017-02-06T05:00:58.565Z,0
2017-02-06T05:01:58.539Z,0
2017-02-06T05:02:58.517Z,0
2017-02-06T05:03:58.501Z,0
2017-02-06T05:04:58.536Z,0
2017-02-06T05:05:58.454Z,0
2017-02-06T05:06:58.434Z,0
2017-02-06T05:07:58.412Z,0
2017-02-06T05:08:57.993Z,0
2017-02-06T05:09:58.375Z,0
2017-02-06T05:10:58.369Z,0
2017-02-06T05:11:58.327Z,0
2017-02-06T05:12:58.304Z,0
2017-02-06T05:13:58.734Z,0
2017-02-06T05:14:58.350Z,0
2017-02-06T05:15:57.850Z,0
2017-02-06T05:16:58.223Z,0
2017-02-06T05:17:58.201Z,0
2017-02-06T05:18:58.179Z,0
2017-02-06T05:19:58.166Z,0
2017-02-06T05:20:57.737Z,0
2017-02-06T05:21:57.719Z,0
2017-02-06T05:22:58.092Z,0
2017-02-06T05:23:58.079Z,0
2017-02-06T05:24:58.051Z,0
2017-02-06T05:25:58.035Z,0
2017-02-06T05:26:58.009Z,0
2017-02-06T05:27:57.989Z,0
2017-02-06T05:28:57.964Z,0
2017-02-06T05:29:57.556Z,0
2017-02-06T05:30:57.929Z,0
2017-02-06T05:31:57.120Z,0
2017-02-06T05:32:57.483Z,0
2017-02-06T05:33:57.875Z,0
2017-02-06T05:34:57.839Z,0
2017-02-06T05:35:57.824Z,0
2017-02-06T05:36:57.865Z,0
2017-02-06T05:37:57.803Z,0
2017-02-06T05:38:57.762Z,0
2017-02-06T05:39:57.736Z,0
2017-02-06T05:40:57.323Z,0
2017-02-06T05:41:57.296Z,0
2017-02-06T05:42:57.673Z,0
2017-02-06T05:43:57.693Z,0
2017-02-06T05:44:57.308Z,0
2017-02-06T05:45:56.838Z,0
2017-02-06T05:46:57.595Z,0
2017-02-06T05:47:57.567Z,0
2017-02-06T05:48:57.144Z,0
2017-02-06T05:49:57.124Z,0
2017-02-06T05:50:57.506Z,0
2017-02-06T05:51:57.485Z,0
2017-02-06T05:52:57.458Z,0
2017-02-06T05:53:57.051Z,0
2017-02-06T05:54:57.416Z,0
2017-02-06T05:55:57.397Z,0
2017-02-06T05:56:57.376Z,0
2017-02-06T05:57:56.967Z,0
2017-02-06T05:58:57.337Z,0
2017-02-06T05:59:57.368Z,0
2017-02-06T06:00:56.905Z,0
2017-02-06T06:01:56.875Z,0
2017-02-06T06:02:57.248Z,0
2017-02-06T06:03:57.227Z,0
2017-02-06T06:04:57.208Z,0
2017-02-06T06:05:57.188Z,0
2017-02-06T06:06:57.168Z,0
2017-02-06T06:07:56.748Z,0
2017-02-06T06:08:57.122Z,0
2017-02-06T06:09:57.097Z,0
2017-02-06T06:10:57.074Z,0
2017-02-06T06:11:57.059Z,0
2017-02-06T06:12:57.033Z,0
2017-02-06T06:13:57.017Z,0
2017-02-06T06:14:57.195Z,0
2017-02-06T06:15:56.974Z,0
2017-02-06T06:16:56.980Z,0
2017-02-06T06:17:56.936Z,0
2017-02-06T06:18:56.515Z,0
2017-02-06T06:19:56.889Z,0
2017-02-06T06:20:56.862Z,0
2017-02-06T06:21:56.843Z,0
2017-02-06T06:22:56.818Z,0
2017-02-06T06:23:56.801Z,0
2017-02-06T06:24:56.777Z,0
2017-02-06T06:25:56.361Z,0
2017-02-06T06:26:56.731Z,0
2017-02-06T06:27:56.727Z,0
2017-02-06T06:28:56.696Z,0
2017-02-06T06:29:56.675Z,0
2017-02-06T06:30:56.253Z,0
2017-02-06T06:31:56.631Z,0
2017-02-06T06:32:56.612Z,0
2017-02-06T06:33:56.586Z,0
2017-02-06T06:34:56.170Z,0
2017-02-06T06:35:56.546Z,0
2017-02-06T06:36:56.522Z,0
2017-02-06T06:37:56.502Z,0
2017-02-06T06:38:56.085Z,0
2017-02-06T06:39:56.456Z,0
2017-02-06T06:40:56.435Z,0
2017-02-06T06:41:56.424Z,0
2017-02-06T06:42:56.438Z,0
2017-02-06T06:43:56.431Z,0
2017-02-06T06:44:56.362Z,0
2017-02-06T06:45:56.329Z,0
2017-02-06T06:46:56.321Z,0
2017-02-06T06:47:55.889Z,0
2017-02-06T06:48:55.865Z,0
2017-02-06T06:49:55.852Z,0
2017-02-06T06:50:56.221Z,0
2017-02-06T06:51:55.819Z,0
2017-02-06T06:52:56.182Z,0
2017-02-06T06:53:56.157Z,0
2017-02-06T06:54:55.741Z,0
2017-02-06T06:55:56.116Z,0
2017-02-06T06:56:55.700Z,0
2017-02-06T06:57:56.123Z,0
2017-02-06T06:58:56.098Z,0
2017-02-06T06:59:56.031Z,0
2017-02-06T07:00:56.015Z,0
2017-02-06T07:01:55.990Z,0
2017-02-06T07:02:55.570Z,0
2017-02-06T07:03:55.951Z,0
2017-02-06T07:04:55.928Z,0
2017-02-06T07:05:55.920Z,0
2017-02-06T07:06:55.882Z,5
2017-02-06T07:07:55.860Z,5
2017-02-06T07:08:55.836Z,5
2017-02-06T07:09:55.425Z,5
2017-02-06T07:10:55.804Z,5
2017-02-06T07:11:55.792Z,5
2017-02-06T07:12:55.757Z,5
2017-02-06T07:13:55.348Z,5
2017-02-06T07:14:55.711Z,5
2017-02-06T07:15:55.689Z,5
2017-02-06T07:16:55.670Z,5
2017-02-06T07:17:55.646Z,5
2017-02-06T07:18:55.631Z,5
2017-02-06T07:19:55.604Z,10
2017-02-06T07:20:55.589Z,10
2017-02-06T07:21:55.553Z,10
2017-02-06T07:22:55.538Z,10
2017-02-06T07:23:55.520Z,10
2017-02-06T07:24:55.101Z,10
2017-02-06T07:25:55.480Z,10
2017-02-06T07:26:55.113Z,10
2017-02-06T07:27:55.435Z,10
2017-02-06T07:28:55.417Z,10
2017-02-06T07:29:55.396Z,10
2017-02-06T07:30:55.376Z,10
2017-02-06T07:31:55.355Z,10
2017-02-06T07:32:54.934Z,10
2017-02-06T07:33:55.317Z,10
2017-02-06T07:34:54.916Z,10
2017-02-06T07:35:55.271Z,10
2017-02-06T07:36:55.244Z,10
2017-02-06T07:37:55.221Z,10
2017-02-06T07:38:54.807Z,15
2017-02-06T07:39:55.181Z,15
2017-02-06T07:40:55.162Z,15
2017-02-06T07:41:55.134Z,15
2017-02-06T07:42:55.115Z,20
2017-02-06T07:43:55.091Z,20
2017-02-06T07:44:55.072Z,20
2017-02-06T07:45:55.051Z,20
2017-02-06T07:46:55.028Z,20
2017-02-06T07:47:55.016Z,20
2017-02-06T07:48:55.002Z,20
2017-02-06T07:49:54.977Z,25
2017-02-06T07:50:54.949Z,20
2017-02-06T07:51:54.924Z,20
2017-02-06T07:52:54.911Z,20
2017-02-06T07:53:54.892Z,25
2017-02-06T07:54:54.955Z,30
2017-02-06T07:55:54.847Z,30
2017-02-06T07:56:54.817Z,30
2017-02-06T07:57:54.808Z,30
2017-02-06T07:58:54.785Z,30
2017-02-06T07:59:54.763Z,30
2017-02-06T08:00:54.737Z,30
2017-02-06T08:01:54.717Z,30
2017-02-06T08:02:54.697Z,30
2017-02-06T08:03:54.681Z,30
2017-02-06T08:04:54.261Z,30
2017-02-06T08:05:54.632Z,30
2017-02-06T08:06:54.616Z,35
2017-02-06T08:07:54.596Z,35
2017-02-06T08:08:54.582Z,35
2017-02-06T08:09:54.158Z,40
2017-02-06T08:10:54.139Z,45
2017-02-06T08:11:54.510Z,45
2017-02-06T08:12:54.091Z,45
2017-02-06T08:13:54.470Z,45
2017-02-06T08:14:54.654Z,40
2017-02-06T08:15:54.426Z,40
2017-02-06T08:16:54.462Z,40
2017-02-06T08:17:54.424Z,40
2017-02-06T08:18:53.592Z,45
2017-02-06T08:19:54.357Z,45
2017-02-06T08:20:54.341Z,45
2017-02-06T08:21:54.315Z,40
2017-02-06T08:22:53.884Z,45
2017-02-06T08:23:54.263Z,45
2017-02-06T08:24:54.249Z,45
2017-02-06T08:25:54.221Z,45
2017-02-06T08:26:54.201Z,45
2017-02-06T08:27:54.182Z,40
2017-02-06T08:28:54.165Z,40
2017-02-06T08:29:54.174Z,45
2017-02-06T08:30:54.121Z,45
2017-02-06T08:31:53.707Z,50
2017-02-06T08:32:54.082Z,50
2017-02-06T08:33:54.076Z,55
2017-02-06T08:34:54.047Z,55
2017-02-06T08:35:54.020Z,55
2017-02-06T08:36:54.011Z,50
2017-02-06T08:37:53.984Z,50
2017-02-06T08:38:53.561Z,50
2017-02-06T08:39:53.594Z,50
2017-02-06T08:40:53.916Z,50
2017-02-06T08:41:53.909Z,50
2017-02-06T08:42:53.883Z,60
2017-02-06T08:43:53.863Z,55
2017-02-06T08:44:53.840Z,55
2017-02-06T08:45:53.431Z,55
2017-02-06T08:46:53.601Z,55
2017-02-06T08:47:53.377Z,55
2017-02-06T08:48:53.753Z,55
2017-02-06T08:49:53.737Z,55
2017-02-06T08:50:53.722Z,55
2017-02-06T08:51:53.304Z,55
2017-02-06T08:52:53.678Z,55
2017-02-06T08:53:53.656Z,55
2017-02-06T08:54:53.645Z,55
2017-02-06T08:55:53.619Z,55
2017-02-06T08:56:53.602Z,55
2017-02-06T08:57:53.598Z,55
2017-02-06T08:58:53.564Z,55
2017-02-06T08:59:53.546Z,55
2017-02-06T09:00:53.529Z,55
2017-02-06T09:01:53.505Z,60
2017-02-06T09:02:53.487Z,60
2017-02-06T09:03:53.063Z,60
2017-02-06T09:04:53.445Z,60
2017-02-06T09:05:53.423Z,65
2017-02-06T09:06:53.409Z,70
2017-02-06T09:07:53.382Z,70
2017-02-06T09:08:53.366Z,70
2017-02-06T09:09:52.949Z,70
2017-02-06T09:10:53.328Z,70
2017-02-06T09:11:52.912Z,70
2017-02-06T09:12:53.289Z,70
2017-02-06T09:13:53.271Z,70
2017-02-06T09:14:52.855Z,75
2017-02-06T09:15:52.439Z,75
2017-02-06T09:16:53.223Z,75
2017-02-06T09:17:53.193Z,70
2017-02-06T09:18:53.175Z,70
2017-02-06T09:19:53.170Z,75
2017-02-06T09:20:53.134Z,70
2017-02-06T09:21:53.119Z,70
2017-02-06T09:22:52.707Z,70
2017-02-06T09:23:53.080Z,70
2017-02-06T09:24:53.056Z,70
2017-02-06T09:25:53.037Z,70
2017-02-06T09:26:52.632Z,70
2017-02-06T09:27:52.605Z,70
2017-02-06T09:28:52.993Z,70
2017-02-06T09:29:52.958Z,70
2017-02-06T09:30:52.944Z,65
2017-02-06T09:31:52.930Z,65
2017-02-06T09:32:52.510Z,65
2017-02-06T09:33:52.883Z,65
2017-02-06T09:34:52.867Z,70
2017-02-06T09:35:52.849Z,70
2017-02-06T09:36:52.881Z,70
2017-02-06T09:37:52.805Z,70
2017-02-06T09:38:52.784Z,75
2017-02-06T09:39:52.806Z,75
2017-02-06T09:40:51.959Z,75
2017-02-06T09:41:52.726Z,75
2017-02-06T09:42:52.706Z,70
2017-02-06T09:43:52.695Z,75
2017-02-06T09:44:52.280Z,70
2017-02-06T09:45:52.706Z,75
2017-02-06T09:46:52.631Z,75
2017-02-06T09:47:52.667Z,75
2017-02-06T09:48:52.595Z,75
2017-02-06T09:49:52.183Z,75
2017-02-06T09:50:52.612Z,80
2017-02-06T09:51:52.537Z,85
2017-02-06T09:52:52.567Z,85
2017-02-06T09:53:52.496Z,85
2017-02-06T09:54:52.480Z,90
2017-02-06T09:55:52.507Z,85
2017-02-06T09:56:52.444Z,85
2017-02-06T09:57:52.428Z,90
2017-02-06T09:58:52.014Z,90
2017-02-06T09:59:52.390Z,85
2017-02-06T10:00:52.365Z,85
2017-02-06T10:01:52.001Z,85
2017-02-06T10:02:51.925Z,85
2017-02-06T10:03:52.308Z,90
2017-02-06T10:04:52.290Z,95
2017-02-06T10:05:52.267Z,105
2017-02-06T10:06:52.245Z,105
2017-02-06T10:07:52.231Z,110
2017-02-06T10:08:52.213Z,115
2017-02-06T10:09:52.197Z,115
2017-02-06T10:10:52.172Z,120
2017-02-06T10:11:52.149Z,115
2017-02-06T10:12:52.137Z,120
2017-02-06T10:13:52.112Z,120
2017-02-06T10:14:52.294Z,125
2017-02-06T10:15:52.081Z,120
2017-02-06T10:16:52.054Z,120
2017-02-06T10:17:52.094Z,130
2017-02-06T10:18:52.027Z,135
2017-02-06T10:19:52.003Z,135
2017-02-06T10:20:51.988Z,130
2017-02-06T10:21:51.565Z,130
2017-02-06T10:22:51.942Z,125
2017-02-06T10:23:51.141Z,140
2017-02-06T10:24:51.516Z,150
2017-02-06T10:25:51.493Z,150
2017-02-06T10:26:51.520Z,145
2017-02-06T10:27:51.849Z,145
2017-02-06T10:28:51.847Z,140
2017-02-06T10:29:51.816Z,140
2017-02-06T10:30:51.793Z,140
2017-02-06T10:31:51.783Z,135
2017-02-06T10:32:51.458Z,125
2017-02-06T10:33:51.349Z,125
2017-02-06T10:34:51.725Z,125
2017-02-06T10:35:51.314Z,120
2017-02-06T10:36:51.689Z,115
2017-02-06T10:37:51.676Z,125
2017-02-06T10:38:51.659Z,125
2017-02-06T10:39:51.685Z,135
2017-02-06T10:40:51.627Z,130
2017-02-06T10:41:51.597Z,140
2017-02-06T10:42:51.191Z,135
2017-02-06T10:43:51.563Z,135
2017-02-06T10:44:51.590Z,145
2017-02-06T10:45:51.522Z,140
2017-02-06T10:46:51.506Z,145
2017-02-06T10:47:51.525Z,155
2017-02-06T10:48:51.080Z,155
2017-02-06T10:49:51.455Z,155
2017-02-06T10:50:51.437Z,140
2017-02-06T10:51:51.457Z,120
2017-02-06T10:52:51.399Z,130
2017-02-06T10:53:50.987Z,125
2017-02-06T10:54:51.365Z,115
2017-02-06T10:55:51.342Z,120
2017-02-06T10:56:51.415Z,140
2017-02-06T10:57:51.308Z,130
2017-02-06T10:58:50.511Z,120
2017-02-06T10:59:50.938Z,125
2017-02-06T11:00:51.256Z,135
2017-02-06T11:01:50.843Z,160
2017-02-06T11:02:51.273Z,165
2017-02-06T11:03:51.208Z,140
2017-02-06T11:04:51.184Z,115
2017-02-06T11:05:50.775Z,115
2017-02-06T11:06:51.158Z,120
2017-02-06T11:07:51.142Z,115
2017-02-06T11:08:51.126Z,120
2017-02-06T11:09:51.105Z,125
2017-02-06T11:10:51.089Z,120
2017-02-06T11:11:51.075Z,125
2017-02-06T11:12:50.655Z,125
2017-02-06T11:13:51.032Z,130
2017-02-06T11:14:51.015Z,130
2017-02-06T11:15:50.608Z,125
2017-02-06T11:16:50.983Z,125
2017-02-06T11:17:50.964Z,120
2017-02-06T11:18:50.546Z,120
2017-02-06T11:19:50.927Z,110
2017-02-06T11:20:50.514Z,110
2017-02-06T11:21:50.500Z,115
2017-02-06T11:22:50.865Z,110
2017-02-06T11:23:50.895Z,105
2017-02-06T11:24:50.829Z,95
2017-02-06T11:25:50.823Z,85
2017-02-06T11:26:50.796Z,85
2017-02-06T11:27:50.794Z,85
2017-02-06T11:28:50.765Z,85
2017-02-06T11:29:50.757Z,85
2017-02-06T11:30:50.726Z,85
2017-02-06T11:31:50.720Z,90
2017-02-06T11:32:50.699Z,95
2017-02-06T11:33:50.673Z,95
2017-02-06T11:34:50.653Z,95
2017-02-06T11:35:50.640Z,95
2017-02-06T11:36:50.639Z,95
2017-02-06T11:37:50.612Z,100
2017-02-06T11:38:50.591Z,105
2017-02-06T11:39:50.181Z,105
2017-02-06T11:40:50.554Z,105
2017-02-06T11:41:50.190Z,105
2017-02-06T11:42:50.152Z,105
2017-02-06T11:43:50.494Z,105
2017-02-06T11:44:50.081Z,110
2017-02-06T11:45:50.071Z,115
2017-02-06T11:46:50.096Z,125
2017-02-06T11:47:50.425Z,120
2017-02-06T11:48:49.614Z,110
2017-02-06T11:49:50.387Z,105
2017-02-06T11:50:50.370Z,105
2017-02-06T11:51:49.956Z,105
2017-02-06T11:52:49.548Z,105
2017-02-06T11:53:50.326Z,105
2017-02-06T11:54:49.915Z,105
2017-02-06T11:55:50.281Z,105
2017-02-06T11:56:50.274Z,105
2017-02-06T11:57:49.859Z,105
2017-02-06T11:58:49.848Z,100
2017-02-06T11:59:50.216Z,100
2017-02-06T12:00:50.195Z,100
2017-02-06T12:01:50.174Z,105
2017-02-06T12:02:49.768Z,105
2017-02-06T12:03:50.149Z,95
2017-02-06T12:04:50.128Z,90
2017-02-06T12:05:50.113Z,85
2017-02-06T12:06:50.099Z,80
2017-02-06T12:07:50.073Z,75
2017-02-06T12:08:50.071Z,75
2017-02-06T12:09:49.648Z,75
2017-02-06T12:10:50.023Z,80
2017-02-06T12:11:50.003Z,85
2017-02-06T12:12:49.987Z,85
2017-02-06T12:13:49.977Z,80
2017-02-06T12:14:50.156Z,85
2017-02-06T12:15:49.937Z,80
2017-02-06T12:16:49.136Z,85
2017-02-06T12:17:49.555Z,85
2017-02-06T12:18:49.533Z,85
2017-02-06T12:19:49.865Z,90
2017-02-06T12:20:49.851Z,105
2017-02-06T12:21:49.834Z,105
2017-02-06T12:22:49.816Z,105
2017-02-06T12:23:49.797Z,100
2017-02-06T12:24:49.781Z,95
2017-02-06T12:25:49.763Z,90
2017-02-06T12:26:49.761Z,85
2017-02-06T12:27:48.937Z,90
2017-02-06T12:28:49.705Z,100
2017-02-06T12:29:49.698Z,105
2017-02-06T12:30:49.671Z,115
2017-02-06T12:31:49.654Z,105
2017-02-06T12:32:48.845Z,95
2017-02-06T12:33:49.643Z,95
2017-02-06T12:34:49.216Z,110
2017-02-06T12:35:48.792Z,110
2017-02-06T12:36:49.178Z,125
2017-02-06T12:37:49.553Z,120
2017-02-06T12:38:49.537Z,105
2017-02-06T12:39:49.119Z,95
2017-02-06T12:40:49.495Z,75
2017-02-06T12:41:49.469Z,75
2017-02-06T12:42:49.455Z,75
2017-02-06T12:43:49.442Z,80
2017-02-06T12:44:49.418Z,75
2017-02-06T12:45:49.408Z,65
2017-02-06T12:46:48.984Z,65
2017-02-06T12:47:49.014Z,65
2017-02-06T12:48:48.955Z,70
2017-02-06T12:49:48.943Z,75
2017-02-06T12:50:49.313Z,70
2017-02-06T12:51:48.901Z,65
2017-02-06T12:52:48.881Z,70
2017-02-06T12:53:49.259Z,80
2017-02-06T12:54:49.257Z,90
2017-02-06T12:55:49.270Z,75
2017-02-06T12:56:49.213Z,70
2017-02-06T12:57:48.844Z,60
2017-02-06T12:58:48.774Z,60
2017-02-06T12:59:49.158Z,60
2017-02-06T13:00:49.140Z,60
2017-02-06T13:01:49.182Z,60
2017-02-06T13:02:49.103Z,60
2017-02-06T13:03:49.076Z,65
2017-02-06T13:04:49.061Z,75
2017-02-06T13:05:49.046Z,95
2017-02-06T13:06:49.024Z,110
2017-02-06T13:07:49.011Z,110
2017-02-06T13:08:48.988Z,105
2017-02-06T13:09:48.976Z,105
2017-02-06T13:10:48.953Z,105
2017-02-06T13:11:48.945Z,100
2017-02-06T13:12:48.916Z,95
2017-02-06T13:13:48.896Z,95
2017-02-06T13:14:48.882Z,95
2017-02-06T13:15:47.684Z,85
2017-02-06T13:16:48.857Z,80
2017-02-06T13:17:48.830Z,80
2017-02-06T13:18:48.811Z,75
2017-02-06T13:19:48.844Z,75
2017-02-06T13:20:48.773Z,75
2017-02-06T13:21:48.761Z,75
2017-02-06T13:22:48.346Z,75
2017-02-06T13:23:48.727Z,80
2017-02-06T13:24:48.302Z,80
2017-02-06T13:25:48.694Z,85
2017-02-06T13:26:48.669Z,85
2017-02-06T13:27:48.651Z,80
2017-02-06T13:28:48.633Z,75
2017-02-06T13:29:48.606Z,70
2017-02-06T13:30:48.204Z,65
2017-02-06T13:31:48.578Z,60
2017-02-06T13:32:48.554Z,60
2017-02-06T13:33:48.541Z,60
2017-02-06T13:34:48.121Z,55
2017-02-06T13:35:48.500Z,55
2017-02-06T13:36:48.478Z,55
2017-02-06T13:37:48.470Z,55
2017-02-06T13:38:48.054Z,60
2017-02-06T13:39:48.429Z,65
2017-02-06T13:40:48.009Z,65
2017-02-06T13:41:48.390Z,60
2017-02-06T13:42:48.372Z,60
2017-02-06T13:43:48.364Z,55
2017-02-06T13:44:48.333Z,55
2017-02-06T13:45:48.319Z,55
2017-02-06T13:46:47.901Z,55
2017-02-06T13:47:48.289Z,55
2017-02-06T13:48:48.263Z,60
2017-02-06T13:49:47.848Z,60
2017-02-06T13:50:48.224Z,60
2017-02-06T13:51:47.816Z,60
2017-02-06T13:52:48.189Z,65
2017-02-06T13:53:48.177Z,65
2017-02-06T13:54:48.155Z,65
2017-02-06T13:55:47.745Z,75
2017-02-06T13:56:48.119Z,85
2017-02-06T13:57:48.110Z,90
2017-02-06T13:58:47.297Z,90
2017-02-06T13:59:47.274Z,85
2017-02-06T14:00:46.867Z,85
2017-02-06T14:01:48.028Z,90
2017-02-06T14:02:47.662Z,90
2017-02-06T14:03:47.201Z,90
2017-02-06T14:04:47.576Z,90
2017-02-06T14:05:47.958Z,85
2017-02-06T14:06:47.935Z,80
2017-02-06T14:07:47.522Z,80
2017-02-06T14:08:47.504Z,75
2017-02-06T14:09:47.887Z,70
2017-02-06T14:10:47.864Z,70
2017-02-06T14:11:47.842Z,65
2017-02-06T14:12:47.825Z,60
2017-02-06T14:13:47.416Z,60
2017-02-06T14:14:48.208Z,60
2017-02-06T14:15:47.768Z,60
2017-02-06T14:16:47.361Z,60
2017-02-06T14:17:47.745Z,60
2017-02-06T14:18:47.722Z,60
2017-02-06T14:19:47.726Z,55
2017-02-06T14:20:47.685Z,55
2017-02-06T14:21:47.661Z,55
2017-02-06T14:22:47.644Z,60
2017-02-06T14:23:47.626Z,60
2017-02-06T14:24:47.212Z,60
2017-02-06T14:25:47.593Z,60